Time;durP1;ratioP1;P1;durP2;ratioP2;P2;SDS_P1;SDS_P2;PMS_P1;PMS_P2;Temp;Humidity;BMP_temperature;BMP_pressure;BME280_temperature;BME280_humidity;BME280_pressure;Samples;Min_cycle;Max_cycle;Signal;HPM_P1;HPM_P2
2024/03/21 00:01:06;;;;;;;35.70;29.90;;;12.20;99.90;;;;;;4983823;28;20477;-65
2024/03/21 00:03:33;;;;;;;36.27;30.60;;;12.20;99.90;;;;;;4990068;28;20465;-66
2024/03/21 00:06:00;;;;;;;34.30;29.77;;;12.20;99.90;;;;;;4988971;28;20489;-65
2024/03/21 00:08:26;;;;;;;35.37;31.57;;;12.20;99.90;;;;;;4988081;28;20504;-65
2024/03/21 00:10:53;;;;;;;33.87;30.23;;;12.20;99.90;;;;;;4975319;28;20499;-65
2024/03/21 00:13:19;;;;;;;35.23;29.60;;;12.20;99.90;;;;;;4969056;28;20476;-65
2024/03/21 00:15:48;;;;;;;34.70;29.20;;;12.20;99.90;;;;;;4967689;28;20470;-65
2024/03/21 00:18:14;;;;;;;30.47;27.20;;;12.20;99.90;;;;;;4970478;28;20470;-65
2024/03/21 00:20:41;;;;;;;32.53;28.90;;;12.20;99.90;;;;;;4978749;28;20532;-65
2024/03/21 00:23:07;;;;;;;32.80;29.27;;;12.10;99.90;;;;;;4987878;28;20917;-65
2024/03/21 00:25:34;;;;;;;35.83;30.33;;;12.10;99.90;;;;;;4988873;28;20497;-66
2024/03/21 00:28:00;;;;;;;33.90;28.73;;;12.10;99.90;;;;;;4988808;28;20867;-65
2024/03/21 00:30:27;;;;;;;34.03;28.87;;;12.10;99.90;;;;;;4987848;28;21017;-65
2024/03/21 00:32:55;;;;;;;33.13;28.10;;;12.10;99.90;;;;;;4987124;28;20488;-65
2024/03/21 00:35:22;;;;;;;32.60;29.10;;;12.10;99.90;;;;;;4989704;28;20473;-65
2024/03/21 00:37:48;;;;;;;34.67;30.00;;;12.10;99.90;;;;;;4988682;28;20469;-65
2024/03/21 00:40:15;;;;;;;31.90;28.50;;;12.10;99.90;;;;;;4978358;28;21317;-65
2024/03/21 00:42:42;;;;;;;33.60;28.03;;;12.10;99.90;;;;;;4969452;28;20565;-65
2024/03/21 00:45:10;;;;;;;31.93;28.43;;;12.10;99.90;;;;;;4968785;28;20490;-65
2024/03/21 00:47:36;;;;;;;34.33;28.37;;;12.10;99.90;;;;;;4969561;28;20474;-65
2024/03/21 00:50:06;;;;;;;33.13;29.57;;;12.00;99.90;;;;;;4971561;28;20493;-65
2024/03/21 00:52:32;;;;;;;31.13;27.20;;;12.00;99.90;;;;;;4988972;28;20544;-65
2024/03/21 00:54:59;;;;;;;32.10;28.50;;;12.00;99.90;;;;;;4986911;28;20465;-66
2024/03/21 00:57:27;;;;;;;30.17;26.10;;;12.00;99.90;;;;;;5003913;28;20473;-65
2024/03/21 00:59:55;;;;;;;33.50;28.30;;;12.00;99.90;;;;;;4988131;28;20481;-66
2024/03/21 01:02:22;;;;;;;32.03;27.23;;;12.00;99.90;;;;;;4987654;28;20492;-66
2024/03/21 01:04:51;;;;;;;30.00;24.67;;;12.00;99.90;;;;;;4988230;28;20484;-66
2024/03/21 01:07:18;;;;;;;32.17;25.93;;;12.00;99.90;;;;;;4989473;28;20488;-65
2024/03/21 01:09:46;;;;;;;27.97;24.70;;;12.00;99.90;;;;;;4973763;28;20475;-66
2024/03/21 01:12:12;;;;;;;27.23;23.30;;;12.00;99.90;;;;;;4988556;28;20918;-65
2024/03/21 01:14:40;;;;;;;27.17;24.30;;;12.00;99.90;;;;;;4987698;28;20465;-65
2024/03/21 01:17:06;;;;;;;28.47;24.53;;;12.00;99.90;;;;;;4989193;28;20465;-65
2024/03/21 01:19:35;;;;;;;27.00;24.20;;;12.00;99.90;;;;;;4984600;28;20469;-65
2024/03/21 01:22:01;;;;;;;29.00;24.53;;;12.00;99.90;;;;;;4967882;28;20509;-65
2024/03/21 01:24:29;;;;;;;29.60;25.10;;;11.90;99.90;;;;;;4967803;28;20474;-65
2024/03/21 01:26:55;;;;;;;27.70;23.40;;;11.90;99.90;;;;;;4966999;28;20513;-65
2024/03/21 01:29:22;;;;;;;27.50;23.90;;;11.90;99.90;;;;;;4965668;28;20462;-65
2024/03/21 01:31:49;;;;;;;26.43;23.63;;;11.90;99.90;;;;;;4986571;28;20485;-65
2024/03/21 01:34:16;;;;;;;23.80;21.20;;;11.90;99.90;;;;;;4988420;28;20480;-65
2024/03/21 01:36:46;;;;;;;24.40;21.37;;;11.90;99.90;;;;;;4984275;28;20474;-65
2024/03/21 01:39:13;;;;;;;22.97;20.47;;;11.90;99.90;;;;;;4985375;28;20473;-65
2024/03/21 01:41:41;;;;;;;23.63;20.80;;;11.90;99.90;;;;;;4986883;28;20485;-65
2024/03/21 01:44:15;;;;;;;25.27;20.50;;;11.80;99.90;;;;;;4987127;28;20469;-65
2024/03/21 01:46:41;;;;;;;23.73;21.07;;;11.80;99.90;;;;;;4987732;28;20592;-64
2024/03/21 01:49:10;;;;;;;25.70;21.53;;;11.80;99.90;;;;;;4985530;28;20472;-65
2024/03/21 01:51:37;;;;;;;24.63;21.53;;;11.80;99.90;;;;;;4986792;28;20999;-65
2024/03/21 01:54:05;;;;;;;28.90;23.67;;;11.80;99.90;;;;;;4987102;28;20476;-66
2024/03/21 01:56:33;;;;;;;26.33;23.53;;;11.80;99.90;;;;;;4985843;28;20469;-66
2024/03/21 01:59:02;;;;;;;27.73;23.93;;;11.80;99.90;;;;;;4985378;28;20484;-66
2024/03/21 02:01:29;;;;;;;27.10;23.53;;;11.80;99.90;;;;;;4969167;28;20481;-66
2024/03/21 02:03:57;;;;;;;28.10;24.47;;;11.80;99.90;;;;;;4968128;28;20466;-66
2024/03/21 02:06:25;;;;;;;27.23;23.30;;;11.80;99.90;;;;;;4966055;28;20494;-67
2024/03/21 02:08:53;;;;;;;28.30;23.50;;;11.80;99.90;;;;;;4963561;28;20501;-66
2024/03/21 02:11:19;;;;;;;26.17;22.53;;;11.80;99.90;;;;;;4982822;28;21006;-66
2024/03/21 02:13:47;;;;;;;25.67;22.20;;;11.80;99.90;;;;;;4986556;28;20908;-66
2024/03/21 02:16:14;;;;;;;24.33;21.70;;;11.80;99.90;;;;;;4986889;28;20470;-66
2024/03/21 02:18:42;;;;;;;26.13;21.07;;;11.80;99.90;;;;;;4985211;28;20845;-66
2024/03/21 02:23:52;;;;;;;25.30;21.43;;;11.70;99.90;;;;;;4966418;28;20473;-66
2024/03/21 02:26:18;;;;;;;25.73;20.70;;;11.70;99.90;;;;;;4965251;28;20509;-66
2024/03/21 02:28:46;;;;;;;22.20;19.80;;;11.70;99.90;;;;;;4967369;28;20493;-66
2024/03/21 02:31:12;;;;;;;24.17;20.60;;;11.70;99.90;;;;;;4979737;28;20487;-65
2024/03/21 02:33:39;;;;;;;25.00;20.63;;;11.70;99.90;;;;;;4987564;28;20972;-64
2024/03/21 02:36:06;;;;;;;23.33;20.57;;;11.70;99.90;;;;;;4986550;28;20469;-65
2024/03/21 02:38:33;;;;;;;28.27;21.50;;;11.70;99.90;;;;;;4986033;28;20472;-65
2024/03/21 02:41:01;;;;;;;24.63;20.30;;;11.70;99.90;;;;;;4986420;28;20476;-65
2024/03/21 02:43:28;;;;;;;26.10;20.63;;;11.70;99.90;;;;;;4985533;28;20970;-65
2024/03/21 02:45:54;;;;;;;23.83;20.70;;;11.70;99.90;;;;;;4985478;28;20493;-68
2024/03/21 02:48:21;;;;;;;26.73;20.63;;;11.70;99.90;;;;;;4986689;28;20473;-65
2024/03/21 02:50:47;;;;;;;24.40;21.00;;;11.70;99.90;;;;;;4974598;28;20540;-65
2024/03/21 02:53:14;;;;;;;23.93;19.50;;;11.70;99.90;;;;;;4962655;28;20478;-64
2024/03/21 02:55:40;;;;;;;25.43;20.73;;;11.70;99.90;;;;;;4965299;28;20470;-65
2024/03/21 02:58:08;;;;;;;24.33;19.97;;;11.60;99.90;;;;;;4966529;28;20544;-65
2024/03/21 03:00:34;;;;;;;23.13;19.57;;;11.60;99.90;;;;;;4975171;28;20490;-65
2024/03/21 03:03:01;;;;;;;24.27;19.77;;;11.60;99.90;;;;;;4987147;28;20500;-65
2024/03/21 03:05:27;;;;;;;22.40;19.20;;;11.60;99.90;;;;;;4986256;28;20974;-66
2024/03/21 03:07:54;;;;;;;24.50;20.17;;;11.60;99.90;;;;;;4985016;28;20461;-65
2024/03/21 03:10:22;;;;;;;24.40;20.30;;;11.60;99.90;;;;;;4985570;28;20485;-65
2024/03/21 03:12:51;;;;;;;22.40;20.03;;;11.60;99.90;;;;;;4985520;28;21027;-66
2024/03/21 03:15:18;;;;;;;24.50;20.60;;;11.60;99.90;;;;;;4984218;28;20473;-66
2024/03/21 03:17:45;;;;;;;25.03;21.10;;;11.60;99.90;;;;;;4986050;28;20481;-65
2024/03/21 03:20:12;;;;;;;22.67;20.17;;;11.60;99.90;;;;;;4984855;28;20509;-66
2024/03/21 03:22:39;;;;;;;23.50;19.53;;;11.60;99.90;;;;;;4984326;28;20489;-65
2024/03/21 03:25:06;;;;;;;24.47;18.93;;;11.60;99.90;;;;;;4986634;28;20872;-65
2024/03/21 03:27:33;;;;;;;22.40;19.10;;;11.60;99.90;;;;;;4985614;28;20885;-65
2024/03/21 03:29:59;;;;;;;22.80;19.80;;;11.60;99.90;;;;;;4986430;28;21376;-67
2024/03/21 03:32:27;;;;;;;26.80;21.53;;;11.50;99.90;;;;;;4985389;28;20913;-65
2024/03/21 03:37:39;;;;;;;23.23;19.40;;;11.50;99.90;;;;;;4986798;28;20465;-65
2024/03/21 03:40:09;;;;;;;22.90;18.83;;;11.50;99.90;;;;;;4977620;28;20482;-66
2024/03/21 03:42:36;;;;;;;25.10;19.70;;;11.50;99.90;;;;;;4966334;28;20490;-66
2024/03/21 03:45:04;;;;;;;22.97;18.47;;;11.50;99.90;;;;;;4965820;28;20470;-65
2024/03/21 03:47:33;;;;;;;22.43;17.83;;;11.50;99.90;;;;;;4967100;28;20494;-66
2024/03/21 03:50:00;;;;;;;20.87;16.60;;;11.50;99.90;;;;;;4969625;28;20481;-66
2024/03/21 03:52:26;;;;;;;20.37;15.67;;;11.50;99.90;;;;;;4985179;28;20832;-65
2024/03/21 03:54:53;;;;;;;21.17;17.23;;;11.50;99.90;;;;;;4986196;28;20582;-65
2024/03/21 03:57:20;;;;;;;21.10;16.80;;;11.50;99.90;;;;;;4986599;28;20469;-67
2024/03/21 03:59:47;;;;;;;18.63;15.60;;;11.50;99.90;;;;;;4981418;28;20482;-66
2024/03/21 04:02:14;;;;;;;19.33;15.20;;;11.50;99.90;;;;;;4964364;28;20502;-67
2024/03/21 04:04:42;;;;;;;18.37;15.70;;;11.50;99.90;;;;;;4967571;28;20473;-67
2024/03/21 04:07:08;;;;;;;18.07;14.40;;;11.50;99.90;;;;;;4970768;28;20489;-66
2024/03/21 04:09:35;;;;;;;18.50;14.97;;;11.50;99.90;;;;;;4969011;28;20477;-66
2024/03/21 04:12:02;;;;;;;17.97;13.80;;;11.50;99.90;;;;;;4989618;28;20876;-66
2024/03/21 04:14:29;;;;;;;17.10;14.53;;;11.50;99.90;;;;;;4988626;28;20465;-67
2024/03/21 04:16:55;;;;;;;17.03;13.93;;;11.50;99.90;;;;;;4988947;28;20484;-66
2024/03/21 04:19:22;;;;;;;15.80;14.10;;;11.50;99.90;;;;;;4986676;28;20465;-66
2024/03/21 04:21:50;;;;;;;14.70;12.60;;;11.50;99.90;;;;;;4969076;28;20494;-66
2024/03/21 04:24:17;;;;;;;15.97;13.47;;;11.50;99.90;;;;;;4970506;28;20474;-66
2024/03/21 04:26:43;;;;;;;14.43;12.90;;;11.50;99.90;;;;;;4967690;28;20494;-66
2024/03/21 04:29:10;;;;;;;13.27;11.63;;;11.50;99.90;;;;;;4970120;28;20470;-67
2024/03/21 04:31:36;;;;;;;14.07;11.83;;;11.50;99.90;;;;;;4987373;28;20507;-66
2024/03/21 04:34:03;;;;;;;13.27;11.17;;;11.50;99.90;;;;;;4989514;28;20477;-66
2024/03/21 04:36:29;;;;;;;12.53;10.53;;;11.50;99.90;;;;;;4988685;28;20523;-66
2024/03/21 04:38:58;;;;;;;11.43;10.10;;;11.50;99.90;;;;;;4987672;28;20481;-66
2024/03/21 04:41:25;;;;;;;12.37;10.90;;;11.50;99.90;;;;;;4988431;28;20558;-66
2024/03/21 04:43:52;;;;;;;10.90;9.70;;;11.50;99.90;;;;;;4987483;28;20476;-66
2024/03/21 04:46:19;;;;;;;12.60;11.10;;;11.50;99.90;;;;;;4989243;28;20559;-66
2024/03/21 04:48:45;;;;;;;14.40;10.00;;;11.50;99.90;;;;;;4988209;28;20477;-66
2024/03/21 04:51:12;;;;;;;12.57;10.60;;;11.50;99.90;;;;;;4987425;28;20503;-67
2024/03/21 04:53:38;;;;;;;12.27;10.80;;;11.50;99.90;;;;;;4987195;28;20461;-67
2024/03/21 04:56:07;;;;;;;11.93;10.63;;;11.50;99.90;;;;;;4986122;28;20473;-67
2024/03/21 04:58:33;;;;;;;11.60;10.40;;;11.50;99.90;;;;;;4988901;28;20488;-67
2024/03/21 05:01:00;;;;;;;12.43;10.50;;;11.50;99.90;;;;;;4986846;28;20484;-66
2024/03/21 05:03:26;;;;;;;12.90;10.10;;;11.50;99.90;;;;;;4988134;28;20469;-67
2024/03/21 05:05:54;;;;;;;10.93;9.70;;;11.50;99.90;;;;;;4987542;28;20960;-66
2024/03/21 05:08:20;;;;;;;12.37;9.83;;;11.50;99.90;;;;;;4988025;28;20879;-66
2024/03/21 05:10:47;;;;;;;11.83;9.80;;;11.50;99.90;;;;;;4986956;28;20489;-66
2024/03/21 05:13:14;;;;;;;11.63;10.43;;;11.50;99.90;;;;;;4987563;28;20477;-67
2024/03/21 05:15:48;;;;;;;11.37;10.00;;;11.50;99.90;;;;;;4988777;28;20504;-66
2024/03/21 05:18:14;;;;;;;11.37;9.80;;;11.40;99.90;;;;;;4988125;28;20481;-66
2024/03/21 05:20:41;;;;;;;10.83;9.73;;;11.50;99.90;;;;;;4986588;28;20473;-66
2024/03/21 05:23:08;;;;;;;11.40;10.20;;;11.50;99.90;;;;;;4988822;28;20492;-67
2024/03/21 05:25:35;;;;;;;11.03;9.93;;;11.50;99.90;;;;;;4987640;28;20520;-66
2024/03/21 05:28:02;;;;;;;10.33;9.10;;;11.50;99.90;;;;;;4986431;28;20497;-66
2024/03/21 05:30:31;;;;;;;11.63;10.40;;;11.50;99.90;;;;;;4976084;28;20493;-66
2024/03/21 05:32:57;;;;;;;11.20;10.00;;;11.50;99.90;;;;;;4987085;28;20540;-67
2024/03/21 05:35:24;;;;;;;12.60;10.73;;;11.50;99.90;;;;;;4989223;28;20468;-66
2024/03/21 05:37:50;;;;;;;11.17;9.97;;;11.50;99.90;;;;;;4985742;28;20465;-66
2024/03/21 05:40:17;;;;;;;10.93;9.83;;;11.50;99.90;;;;;;4986427;28;20484;-66
2024/03/21 05:42:44;;;;;;;10.53;9.43;;;11.40;99.90;;;;;;4987192;28;21040;-66
2024/03/21 05:45:11;;;;;;;12.10;10.80;;;11.40;99.90;;;;;;4988425;28;20469;-66
2024/03/21 05:47:38;;;;;;;11.10;9.40;;;11.40;99.90;;;;;;4984751;28;20497;-66
2024/03/21 05:50:07;;;;;;;11.23;9.83;;;11.40;99.90;;;;;;4985553;28;20496;-66
2024/03/21 05:52:33;;;;;;;12.07;10.50;;;11.40;99.90;;;;;;4988015;28;20581;-66
2024/03/21 05:55:01;;;;;;;10.87;9.73;;;11.40;99.90;;;;;;4987914;28;20481;-66
2024/03/21 05:57:27;;;;;;;12.23;9.90;;;11.40;99.90;;;;;;4981854;28;20469;-66
2024/03/21 05:59:55;;;;;;;10.73;9.63;;;11.40;99.90;;;;;;4974012;28;20566;-66
2024/03/21 06:02:21;;;;;;;13.00;10.60;;;11.40;99.90;;;;;;4980243;28;20519;-66
2024/03/21 06:04:49;;;;;;;11.53;10.00;;;11.40;99.90;;;;;;4986988;28;20540;-66
2024/03/21 06:07:16;;;;;;;11.47;9.93;;;11.40;99.90;;;;;;5001879;28;20496;-66
2024/03/21 06:09:43;;;;;;;11.20;10.00;;;11.20;99.90;;;;;;4982650;28;20478;-66
2024/03/21 06:12:09;;;;;;;12.97;10.60;;;11.10;99.90;;;;;;4967882;28;20497;-66
2024/03/21 06:14:36;;;;;;;12.30;9.40;;;10.90;99.90;;;;;;4968202;28;20478;-66
2024/03/21 06:17:03;;;;;;;12.30;9.83;;;10.90;99.90;;;;;;4968234;28;20524;-66
2024/03/21 06:19:30;;;;;;;11.63;9.50;;;10.70;99.90;;;;;;4966210;28;20807;-66
2024/03/21 06:21:58;;;;;;;11.73;9.27;;;10.70;99.90;;;;;;4986906;28;20485;-66
2024/03/21 06:24:25;;;;;;;13.00;9.83;;;10.60;99.90;;;;;;4987020;28;20484;-66
2024/03/21 06:26:51;;;;;;;10.20;9.20;;;10.50;99.90;;;;;;4984746;28;20481;-66
2024/03/21 06:29:18;;;;;;;10.77;8.97;;;10.40;99.90;;;;;;4986628;28;20531;-66
2024/03/21 06:31:44;;;;;;;11.30;8.33;;;10.40;99.90;;;;;;4966364;28;20817;-66
2024/03/21 06:34:11;;;;;;;12.00;8.87;;;10.30;99.90;;;;;;4968280;28;20476;-66
2024/03/21 06:36:37;;;;;;;11.00;8.77;;;10.30;99.90;;;;;;4964827;28;20477;-66
2024/03/21 06:39:07;;;;;;;9.27;7.70;;;10.20;99.90;;;;;;4967569;28;20477;-67
2024/03/21 06:41:33;;;;;;;8.63;7.33;;;10.10;99.90;;;;;;4967210;28;20512;-66
2024/03/21 06:44:00;;;;;;;10.27;7.90;;;10.10;99.90;;;;;;4967409;28;20466;-66
2024/03/21 06:46:26;;;;;;;8.40;7.37;;;10.10;99.90;;;;;;4964588;28;20871;-66
2024/03/21 06:48:53;;;;;;;10.60;8.00;;;10.00;99.90;;;;;;4966508;28;21019;-66
2024/03/21 06:51:20;;;;;;;9.53;7.73;;;9.90;99.90;;;;;;4964981;28;20529;-66
2024/03/21 06:53:47;;;;;;;10.27;8.63;;;9.90;99.90;;;;;;4963692;28;20469;-66
2024/03/21 06:56:14;;;;;;;11.23;8.63;;;9.80;99.90;;;;;;4967151;28;20533;-66
2024/03/21 06:58:41;;;;;;;9.97;8.07;;;9.70;99.90;;;;;;4979491;28;20481;-66
2024/03/21 07:01:08;;;;;;;9.40;8.40;;;9.70;99.90;;;;;;4966318;28;20537;-66
2024/03/21 07:03:38;;;;;;;10.20;8.10;;;9.70;99.90;;;;;;4967225;28;20482;-66
2024/03/21 07:06:04;;;;;;;10.60;8.43;;;9.70;99.90;;;;;;4966577;28;20478;-66
2024/03/21 07:08:31;;;;;;;11.10;8.47;;;9.70;99.90;;;;;;4964061;28;20485;-66
2024/03/21 07:10:57;;;;;;;10.40;8.13;;;9.70;99.90;;;;;;4977251;28;20469;-66
2024/03/21 07:13:26;;;;;;;10.10;9.00;;;9.70;99.90;;;;;;4985187;28;20480;-66
2024/03/21 07:15:52;;;;;;;9.37;8.47;;;9.80;99.90;;;;;;4986248;28;20905;-66
2024/03/21 07:18:19;;;;;;;10.73;8.47;;;9.80;99.90;;;;;;4979706;28;20468;-66
2024/03/21 07:20:54;;;;;;;10.43;8.20;;;9.80;99.90;;;;;;4985530;28;20473;-66
2024/03/21 07:23:21;;;;;;;10.33;9.23;;;9.80;99.90;;;;;;4985742;28;20465;-66
2024/03/21 07:25:47;;;;;;;10.57;8.50;;;9.80;99.90;;;;;;4985817;28;20466;-66
2024/03/21 07:28:14;;;;;;;10.40;9.40;;;9.80;99.90;;;;;;4986016;28;20489;-66
2024/03/21 07:30:41;;;;;;;9.87;8.87;;;9.80;99.90;;;;;;4984164;28;20540;-66
2024/03/21 07:33:08;;;;;;;10.70;8.67;;;9.70;99.90;;;;;;4986244;28;20496;-66
2024/03/21 07:35:35;;;;;;;10.07;8.23;;;9.70;99.90;;;;;;4983732;28;20605;-66
2024/03/21 07:38:02;;;;;;;11.57;8.57;;;9.70;99.90;;;;;;4985661;28;20965;-66
2024/03/21 07:40:29;;;;;;;11.73;8.97;;;9.70;99.90;;;;;;4987411;28;20465;-66
2024/03/21 07:42:56;;;;;;;10.70;7.87;;;9.70;99.90;;;;;;4989038;28;20489;-66
2024/03/21 07:45:22;;;;;;;11.27;7.83;;;9.60;99.90;;;;;;4989605;28;20469;-66
2024/03/21 07:47:50;;;;;;;9.80;7.77;;;9.60;99.90;;;;;;4989354;28;20485;-66
2024/03/21 07:50:16;;;;;;;7.93;7.13;;;9.50;99.90;;;;;;4989545;28;20484;-66
2024/03/21 07:52:43;;;;;;;9.40;6.30;;;9.50;99.90;;;;;;4988242;28;20492;-66
2024/03/21 07:55:09;;;;;;;8.97;5.90;;;9.50;99.90;;;;;;4989754;28;20477;-66
2024/03/21 07:57:36;;;;;;;9.33;6.50;;;9.50;99.90;;;;;;4989173;28;20540;-66
2024/03/21 08:00:05;;;;;;;8.73;6.37;;;9.50;99.90;;;;;;4981684;28;20497;-66
2024/03/21 08:02:32;;;;;;;10.73;5.90;;;9.40;99.90;;;;;;4970611;28;20490;-66
2024/03/21 08:05:00;;;;;;;9.40;6.33;;;9.40;99.90;;;;;;4969939;28;20481;-66
2024/03/21 08:07:27;;;;;;;9.43;6.63;;;9.40;99.90;;;;;;4967216;28;20505;-66
2024/03/21 08:09:53;;;;;;;9.10;6.03;;;9.40;99.90;;;;;;4967647;28;20486;-66
2024/03/21 08:12:20;;;;;;;8.00;5.60;;;9.40;99.90;;;;;;4970153;28;20991;-66
2024/03/21 08:14:46;;;;;;;8.80;5.60;;;9.40;99.90;;;;;;4968646;28;20532;-67
2024/03/21 08:17:13;;;;;;;8.30;5.30;;;9.40;99.90;;;;;;4970400;28;20470;-66
2024/03/21 08:19:44;;;;;;;6.93;5.50;;;9.40;99.90;;;;;;4968809;28;20552;-66
2024/03/21 08:22:12;;;;;;;7.90;4.60;;;9.40;99.90;;;;;;4984116;28;21011;-66
2024/03/21 08:24:38;;;;;;;5.93;5.23;;;9.40;99.90;;;;;;4968031;28;20462;-66
2024/03/21 08:27:06;;;;;;;7.23;6.53;;;9.30;99.90;;;;;;4969371;28;20486;-66
2024/03/21 08:29:32;;;;;;;9.00;5.90;;;9.40;99.90;;;;;;4968618;28;20477;-66
2024/03/21 08:31:59;;;;;;;8.10;5.10;;;9.40;99.90;;;;;;4969925;28;20494;-66
2024/03/21 08:34:25;;;;;;;8.13;5.53;;;9.30;99.90;;;;;;4967021;28;20479;-66
2024/03/21 08:36:52;;;;;;;6.67;5.60;;;9.30;99.90;;;;;;4970208;28;20517;-66
2024/03/21 08:39:20;;;;;;;8.73;5.90;;;9.40;99.90;;;;;;4969041;28;20470;-66
2024/03/21 08:41:47;;;;;;;8.30;6.27;;;9.30;99.90;;;;;;4967191;28;20485;-66
2024/03/21 08:44:13;;;;;;;9.13;5.50;;;9.30;99.90;;;;;;4967877;28;21184;-66
2024/03/21 08:46:40;;;;;;;8.47;6.13;;;9.30;99.90;;;;;;4969950;28;20953;-66
2024/03/21 08:49:06;;;;;;;8.23;6.47;;;9.30;99.90;;;;;;4967381;28;20696;-66
2024/03/21 08:51:33;;;;;;;9.40;6.80;;;9.40;99.90;;;;;;4966794;28;20549;-66
2024/03/21 08:53:59;;;;;;;12.53;7.27;;;9.30;99.90;;;;;;4968575;28;20470;-66
2024/03/21 08:56:30;;;;;;;8.60;6.47;;;9.30;99.90;;;;;;4969445;28;20485;-66
2024/03/21 08:58:56;;;;;;;8.13;6.50;;;9.40;99.90;;;;;;4966794;28;20466;-66
2024/03/21 09:01:23;;;;;;;10.80;6.80;;;9.40;99.90;;;;;;4968867;28;20478;-66
2024/03/21 09:03:49;;;;;;;10.60;6.60;;;9.40;99.90;;;;;;4969085;28;20478;-66
2024/03/21 09:06:16;;;;;;;9.60;6.40;;;9.40;99.90;;;;;;4984204;28;20490;-67
2024/03/21 09:08:42;;;;;;;14.00;6.90;;;9.40;99.90;;;;;;4966182;28;20501;-66
2024/03/21 09:11:10;;;;;;;12.00;7.43;;;9.50;99.90;;;;;;4976001;28;20549;-66
2024/03/21 09:13:37;;;;;;;10.07;7.03;;;9.50;99.90;;;;;;4978609;28;21109;-66
2024/03/21 09:16:07;;;;;;;10.43;7.10;;;9.50;99.90;;;;;;4976312;28;20474;-66
2024/03/21 09:18:33;;;;;;;8.40;7.30;;;9.60;99.90;;;;;;4975776;28;20469;-66
2024/03/21 09:21:02;;;;;;;10.13;7.13;;;9.60;99.90;;;;;;4984091;28;20481;-66
2024/03/21 09:23:29;;;;;;;8.40;7.40;;;9.60;99.90;;;;;;4987726;28;20485;-66
2024/03/21 09:25:59;;;;;;;8.87;7.20;;;9.70;99.90;;;;;;4986880;28;20472;-66
2024/03/21 09:28:26;;;;;;;10.80;7.47;;;9.80;99.90;;;;;;4988423;28;20859;-66
2024/03/21 09:30:54;;;;;;;10.00;7.13;;;9.80;99.90;;;;;;4986405;28;21038;-66
2024/03/21 09:33:20;;;;;;;8.90;7.90;;;9.90;99.90;;;;;;4987206;28;20469;-66
2024/03/21 09:35:56;;;;;;;8.80;7.80;;;10.00;99.90;;;;;;4980296;28;20488;-66
2024/03/21 09:38:22;;;;;;;9.40;8.40;;;10.00;99.90;;;;;;4987871;28;20473;-66
2024/03/21 09:40:49;;;;;;;11.10;9.63;;;10.10;99.90;;;;;;4974960;28;21007;-66
2024/03/21 09:43:16;;;;;;;11.30;8.83;;;10.20;99.90;;;;;;4966742;28;20474;-66
2024/03/21 09:45:45;;;;;;;10.90;9.70;;;10.20;99.90;;;;;;4961665;28;20470;-66
2024/03/21 09:48:12;;;;;;;11.20;9.63;;;10.30;99.90;;;;;;4966445;28;20497;-66
2024/03/21 09:50:42;;;;;;;10.20;9.10;;;10.30;99.90;;;;;;4977906;28;20477;-67
2024/03/21 09:53:13;;;;;;;11.07;9.60;;;10.30;99.90;;;;;;4986829;28;20493;-66
2024/03/21 09:55:41;;;;;;;11.43;10.10;;;10.30;99.90;;;;;;4984867;28;20466;-66
2024/03/21 09:58:12;;;;;;;11.43;9.90;;;10.40;99.90;;;;;;4986482;28;20499;-66
2024/03/21 10:00:39;;;;;;;9.43;8.53;;;10.50;99.90;;;;;;4983327;28;20504;-66
2024/03/21 10:03:05;;;;;;;9.50;8.43;;;10.50;99.90;;;;;;4986896;28;20497;-66
2024/03/21 10:05:34;;;;;;;9.53;7.90;;;10.60;99.90;;;;;;4988296;28;20481;-66
2024/03/21 10:08:00;;;;;;;8.13;7.27;;;10.60;99.90;;;;;;4985740;28;20933;-66
2024/03/21 10:10:27;;;;;;;6.67;5.97;;;10.60;99.90;;;;;;4984875;28;20485;-66
2024/03/21 10:12:53;;;;;;;7.13;6.10;;;10.70;99.90;;;;;;4986668;28;20556;-66
2024/03/21 10:15:21;;;;;;;5.07;4.57;;;10.70;99.90;;;;;;4983560;28;20473;-66
2024/03/21 10:17:47;;;;;;;5.20;4.63;;;10.70;99.90;;;;;;4984811;28;21029;-66
2024/03/21 10:20:14;;;;;;;5.20;4.70;;;10.70;99.90;;;;;;4987131;28;21321;-66
2024/03/21 10:22:45;;;;;;;4.00;3.60;;;10.70;99.90;;;;;;4987198;28;20881;-66
2024/03/21 10:25:16;;;;;;;3.17;2.87;;;10.70;99.90;;;;;;4985522;28;20529;-66
2024/03/21 10:27:46;;;;;;;4.30;2.93;;;10.70;99.90;;;;;;4987090;28;20493;-66
2024/03/21 10:30:19;;;;;;;2.93;2.67;;;10.70;99.90;;;;;;4986641;28;20496;-66
2024/03/21 10:32:46;;;;;;;2.90;2.53;;;10.70;99.90;;;;;;4984779;28;20497;-66
2024/03/21 10:35:17;;;;;;;2.43;2.20;;;10.70;99.90;;;;;;4986880;28;20469;-66
2024/03/21 10:37:45;;;;;;;3.20;2.90;;;10.70;99.90;;;;;;4985054;28;20457;-66
2024/03/21 10:40:13;;;;;;;2.93;2.67;;;10.70;99.90;;;;;;4979295;28;20489;-66
2024/03/21 10:42:45;;;;;;;2.77;2.53;;;10.80;99.90;;;;;;4965855;28;20490;-65
2024/03/21 10:45:16;;;;;;;4.07;3.70;;;10.80;99.90;;;;;;4967109;28;20478;-66
2024/03/21 10:47:47;;;;;;;4.53;3.80;;;10.70;99.90;;;;;;4966826;28;20494;-66
2024/03/21 10:50:21;;;;;;;5.43;4.93;;;10.60;99.90;;;;;;4972505;28;20477;-66
2024/03/21 10:52:50;;;;;;;6.37;5.73;;;10.60;99.90;;;;;;4986597;28;20547;-66
2024/03/21 10:55:21;;;;;;;6.30;5.70;;;10.60;99.90;;;;;;4986018;28;20959;-66
2024/03/21 10:57:51;;;;;;;7.87;6.40;;;10.60;99.90;;;;;;4985294;28;20469;-66
2024/03/21 11:00:21;;;;;;;7.33;6.60;;;10.50;99.90;;;;;;4985893;28;20482;-67
2024/03/21 11:02:52;;;;;;;8.77;7.10;;;10.40;99.90;;;;;;4984996;28;20551;-66
2024/03/21 11:05:25;;;;;;;7.80;7.00;;;10.40;99.90;;;;;;4987272;28;20480;-66
2024/03/21 11:07:53;;;;;;;7.70;6.83;;;10.30;99.90;;;;;;4984150;28;20493;-66
2024/03/21 11:10:21;;;;;;;9.27;7.27;;;10.30;99.90;;;;;;4985970;28;20489;-66
2024/03/21 11:12:48;;;;;;;8.73;6.80;;;10.30;99.90;;;;;;4986579;28;20497;-67
2024/03/21 11:15:16;;;;;;;8.10;7.30;;;10.30;99.90;;;;;;4990889;28;20465;-66
2024/03/21 11:17:43;;;;;;;7.60;6.90;;;10.30;99.90;;;;;;4993093;28;20469;-66
2024/03/21 11:20:13;;;;;;;8.30;7.33;;;10.30;99.90;;;;;;4985069;28;20493;-67
2024/03/21 11:22:44;;;;;;;9.03;8.13;;;10.40;99.90;;;;;;4973831;28;20497;-67
2024/03/21 11:25:12;;;;;;;8.53;6.50;;;10.40;99.90;;;;;;4967499;28;20493;-66
2024/03/21 11:27:39;;;;;;;8.40;7.53;;;10.40;99.90;;;;;;4973052;28;21006;-67
2024/03/21 11:30:08;;;;;;;8.10;7.30;;;10.40;99.90;;;;;;4977364;28;20527;-66
2024/03/21 11:32:35;;;;;;;7.77;6.80;;;10.30;99.90;;;;;;4992394;28;20512;-66
2024/03/21 11:35:01;;;;;;;8.30;7.53;;;10.30;99.90;;;;;;4991858;28;20477;-66
2024/03/21 11:37:28;;;;;;;9.23;7.47;;;10.20;99.90;;;;;;4992186;28;20476;-66
2024/03/21 11:39:54;;;;;;;8.77;7.87;;;10.20;99.90;;;;;;4986920;28;20478;-67
2024/03/21 11:42:26;;;;;;;8.30;7.40;;;10.20;99.90;;;;;;4970174;28;20492;-66
2024/03/21 11:44:52;;;;;;;8.97;7.07;;;10.20;99.90;;;;;;4973107;28;20470;-66
2024/03/21 11:47:20;;;;;;;9.30;8.30;;;10.20;99.90;;;;;;4973935;28;20482;-66
2024/03/21 11:49:48;;;;;;;9.47;7.33;;;10.20;99.90;;;;;;4975811;28;20477;-66
2024/03/21 11:52:16;;;;;;;8.03;7.17;;;10.10;99.90;;;;;;4992056;28;21022;-66
2024/03/21 11:54:43;;;;;;;9.23;7.80;;;10.10;99.90;;;;;;4992155;28;20477;-66
2024/03/21 11:57:13;;;;;;;8.87;7.23;;;10.10;99.90;;;;;;4993202;28;20473;-66
2024/03/21 11:59:41;;;;;;;9.83;7.77;;;10.10;99.90;;;;;;4987186;28;21201;-66
2024/03/21 12:02:12;;;;;;;8.60;7.70;;;10.10;99.90;;;;;;4971997;28;20568;-67
2024/03/21 12:04:38;;;;;;;8.23;7.10;;;10.20;99.90;;;;;;4972987;28;20488;-66
2024/03/21 12:07:05;;;;;;;8.90;7.93;;;10.20;99.90;;;;;;4970639;28;20482;-66
2024/03/21 12:09:32;;;;;;;8.30;7.40;;;10.20;99.90;;;;;;4973812;28;20496;-66
2024/03/21 12:11:59;;;;;;;7.90;7.10;;;10.30;99.90;;;;;;4991844;28;20504;-66
2024/03/21 12:14:25;;;;;;;6.80;6.20;;;10.30;99.90;;;;;;4990240;28;20480;-66
2024/03/21 12:16:53;;;;;;;7.37;6.40;;;10.30;99.90;;;;;;4990860;28;20472;-68
2024/03/21 12:19:19;;;;;;;6.93;6.30;;;10.30;99.90;;;;;;4992757;28;20472;-67
2024/03/21 12:21:46;;;;;;;8.30;6.60;;;10.30;99.90;;;;;;4971559;28;20495;-66
2024/03/21 12:24:12;;;;;;;7.33;6.63;;;10.30;99.90;;;;;;4960848;28;20540;-66
2024/03/21 12:26:39;;;;;;;7.53;6.37;;;10.30;99.90;;;;;;4984647;28;20474;-66
2024/03/21 12:29:06;;;;;;;7.47;6.67;;;10.30;99.90;;;;;;4969443;28;21002;-66
2024/03/21 12:31:33;;;;;;;8.20;7.30;;;10.40;99.90;;;;;;4985498;28;20496;-66
2024/03/21 12:34:00;;;;;;;7.77;6.97;;;10.40;99.90;;;;;;5002792;28;20469;-65
2024/03/21 12:36:27;;;;;;;7.93;6.93;;;10.40;99.90;;;;;;4989367;28;20828;-66
2024/03/21 12:38:53;;;;;;;6.97;6.27;;;10.30;99.90;;;;;;4987989;28;20469;-65
2024/03/21 12:41:21;;;;;;;8.83;6.40;;;10.30;99.90;;;;;;4968168;28;20486;-66
2024/03/21 12:43:47;;;;;;;7.30;6.60;;;10.30;99.90;;;;;;4969721;28;20474;-65